Burlington, North Carolina
Current Conditions -  °F | °C
As of 10:54 PM on Tuesday 27 Jan 2015 (Local Time) from KBUY Reporting Station
Clear Clear  
Wind Chill: 23°   Ceiling: Unl
Heat Index: 32°   Visibility: 10mi
Dew Point:   Wind: 13mph
Humidity: 37%   Direction: 330°NNW
Pressure: 29.98"   Gusts: 22mph
Location:  36.1°N, 79.44°W
Report Text: KBUY 280354Z AUTO 33011G19KT 10SM CLR 00/M13 A2998 RMK AO2 SLP156 T00001133
Loading
Personal Weather Stations






























Interactive Weather Map New forecast layout! Learn more

10-Day Weather Forecast

Advertisements
Track Severe Weather on mobile